Lapeer, Michigan
Current Conditions -  °F | °C
As of 3:34 PM on Saturday 27 Dec 2014 (Local Time) from KD95 Reporting Station
Overcast Overcast  
Wind Chill: 42°   Ceiling: 1000
Heat Index: 47°   Visibility: 10mi
Dew Point: 43°   Wind: 14mph
Humidity: 86%   Direction: 230°SW
Pressure: 29.88"   Gusts: 21mph
Location:  43.05°N, 83.31°W
Report Text: KD95 272034Z AUTO 23012G18KT 10SM OVC010 09/06 A2988 RMK AO2 T00860063
Loading
Personal Weather Stations






























Interactive Weather Map New forecast layout! Learn more

10-Day Weather Forecast

Advertisements
Track Severe Weather on mobile